createdAt,value
2023-04-18T00:01:03.786Z,11.64
2023-04-18T00:04:06.662Z,11.62
2023-04-18T00:07:09.105Z,11.54
2023-04-18T00:10:11.816Z,11.48
2023-04-18T00:13:14.173Z,11.57
2023-04-18T00:16:16.879Z,11.45
2023-04-18T00:19:20.140Z,11.42
2023-04-18T00:22:22.951Z,11.44
2023-04-18T00:25:25.352Z,11.39
2023-04-18T00:28:28.025Z,11.35
2023-04-18T00:31:30.811Z,11.35
2023-04-18T00:34:33.440Z,11.31
2023-04-18T00:37:35.903Z,11.31
2023-04-18T00:40:38.909Z,11.33
2023-04-18T00:43:41.384Z,11.36
2023-04-18T00:46:44.179Z,11.37
2023-04-18T00:49:47.957Z,11.37
2023-04-18T00:52:52.081Z,11.32
2023-04-18T00:55:55.021Z,11.32
2023-04-18T00:58:57.971Z,11.33
2023-04-18T01:02:02.264Z,11.33
2023-04-18T01:05:06.105Z,11.32
2023-04-18T01:08:08.511Z,11.26
2023-04-18T01:11:11.251Z,11.25
2023-04-18T01:14:15.092Z,11.24
2023-04-18T01:17:19.362Z,11.24
2023-04-18T01:20:21.832Z,11.22
2023-04-18T01:23:24.422Z,11.26
2023-04-18T01:26:27.309Z,11.34
2023-04-18T01:29:29.876Z,11.37
2023-04-18T01:32:32.263Z,11.38
2023-04-18T01:35:34.950Z,11.34
2023-04-18T01:38:37.693Z,11.43
2023-04-18T01:41:41.515Z,11.40
2023-04-18T01:44:45.123Z,11.44
2023-04-18T01:47:48.331Z,11.39
2023-04-18T01:50:50.966Z,11.41
2023-04-18T01:53:53.690Z,11.43
2023-04-18T01:56:55.950Z,11.40
2023-04-18T01:59:58.751Z,11.38
2023-04-18T02:03:01.167Z,11.40
2023-04-18T02:06:04.539Z,11.39
2023-04-18T02:09:07.032Z,11.33
2023-04-18T02:12:10.145Z,11.32
2023-04-18T02:15:12.462Z,11.38
2023-04-18T02:18:15.793Z,11.38
2023-04-18T02:21:18.173Z,11.32
2023-04-18T02:24:21.162Z,11.28
2023-04-18T02:27:23.410Z,11.28
2023-04-18T02:30:26.252Z,11.26
2023-04-18T02:33:29.277Z,11.24
2023-04-18T02:36:31.972Z,11.23
2023-04-18T02:39:34.586Z,11.27
2023-04-18T02:42:37.136Z,11.31
2023-04-18T02:45:39.488Z,11.28
2023-04-18T02:48:42.129Z,11.25
2023-04-18T02:51:45.226Z,11.03
2023-04-18T02:54:47.910Z,10.99
2023-04-18T02:57:50.529Z,11.02
2023-04-18T03:00:54.482Z,11.07
2023-04-18T03:03:58.331Z,11.05
2023-04-18T03:07:01.629Z,11.07
2023-04-18T03:10:05.412Z,11.03
2023-04-18T03:13:08.896Z,11.03
2023-04-18T03:16:11.505Z,11.05
2023-04-18T03:19:14.526Z,11.12
2023-04-18T03:22:20.066Z,11.16
2023-04-18T03:25:24.466Z,11.17
2023-04-18T03:28:27.053Z,11.28
2023-04-18T03:31:29.919Z,11.24
2023-04-18T03:34:32.322Z,11.21
2023-04-18T03:37:35.264Z,11.19
2023-04-18T03:40:38.335Z,11.20
2023-04-18T03:43:41.602Z,11.20
2023-04-18T03:46:44.284Z,11.21
2023-04-18T03:49:47.636Z,11.20
2023-04-18T03:52:50.296Z,11.18
2023-04-18T03:55:53.212Z,11.16
2023-04-18T03:58:56.153Z,11.13
2023-04-18T04:01:59.028Z,11.04
2023-04-18T04:05:02.746Z,10.96
2023-04-18T04:08:05.602Z,10.78
2023-04-18T04:11:09.485Z,10.64
2023-04-18T04:14:12.761Z,10.51
2023-04-18T04:17:16.280Z,10.39
2023-04-18T04:20:24.101Z,10.33
2023-04-18T04:23:28.266Z,10.23
2023-04-18T04:26:30.779Z,10.18
2023-04-18T04:29:35.309Z,10.19
2023-04-18T04:32:38.957Z,10.21
2023-04-18T04:35:41.807Z,10.21
2023-04-18T04:38:45.040Z,10.15
2023-04-18T04:41:48.910Z,10.08
2023-04-18T04:44:53.635Z,10.01
2023-04-18T04:47:57.049Z,9.97
2023-04-18T04:50:59.889Z,10.10
2023-04-18T04:54:02.815Z,10.07
2023-04-18T04:57:05.411Z,10.13
2023-04-18T05:00:08.649Z,10.20
2023-04-18T05:03:11.638Z,10.21
2023-04-18T05:06:20.531Z,10.24
2023-04-18T05:09:22.944Z,10.16
2023-04-18T05:12:26.863Z,10.15
2023-04-18T05:15:29.146Z,10.09
2023-04-18T05:18:34.365Z,10.23
2023-04-18T05:21:37.472Z,10.26
2023-04-18T05:24:40.733Z,10.26
2023-04-18T05:27:43.470Z,10.33
2023-04-18T05:30:46.112Z,10.40
2023-04-18T05:33:48.383Z,10.50
2023-04-18T05:36:51.117Z,10.50
2023-04-18T05:39:53.426Z,10.53
2023-04-18T05:42:56.099Z,10.60
2023-04-18T05:45:58.447Z,10.79
2023-04-18T05:49:01.514Z,11.01
2023-04-18T05:52:04.047Z,11.03
2023-04-18T05:55:06.906Z,11.13
2023-04-18T05:58:09.399Z,11.17
2023-04-18T06:01:14.330Z,11.32
2023-04-18T06:04:19.575Z,11.30
2023-04-18T06:07:25.212Z,11.46
2023-04-18T06:10:28.158Z,11.70
2023-04-18T06:13:31.111Z,11.56
2023-04-18T06:16:33.818Z,11.56
2023-04-18T06:19:36.269Z,11.62
2023-04-18T06:22:38.969Z,11.55
2023-04-18T06:25:41.605Z,11.72
2023-04-18T06:28:44.284Z,11.73
2023-04-18T06:31:48.363Z,11.85
2023-04-18T06:34:53.363Z,12.05
2023-04-18T06:37:56.104Z,12.13
2023-04-18T06:40:58.697Z,12.16
2023-04-18T06:44:04.129Z,12.38
2023-04-18T06:47:07.383Z,12.50
2023-04-18T06:50:09.833Z,12.85
2023-04-18T06:53:12.733Z,13.18
2023-04-18T06:56:15.093Z,13.41
2023-04-18T06:59:17.842Z,13.49
2023-04-18T07:02:20.410Z,13.31
2023-04-18T07:05:23.352Z,13.85
2023-04-18T07:08:25.742Z,13.36
2023-04-18T07:11:28.562Z,13.80
2023-04-18T07:14:32.849Z,13.63
2023-04-18T07:17:37.776Z,13.78
2023-04-18T07:20:40.357Z,13.86
2023-04-18T07:23:42.991Z,13.99
2023-04-18T07:26:45.374Z,14.33
2023-04-18T07:29:48.558Z,14.53
2023-04-18T07:32:50.904Z,14.12
2023-04-18T07:35:54.002Z,14.45
2023-04-18T07:38:56.393Z,14.59
2023-04-18T07:41:59.486Z,14.56
2023-04-18T07:45:01.902Z,14.35
2023-04-18T07:48:05.161Z,13.75
2023-04-18T07:51:07.488Z,13.66
2023-04-18T07:54:11.239Z,13.66
2023-04-18T07:57:18.717Z,13.52
2023-04-18T08:00:21.514Z,13.37
2023-04-18T08:03:24.887Z,13.34
2023-04-18T08:06:28.191Z,13.69
2023-04-18T08:09:30.817Z,13.58
2023-04-18T08:12:33.543Z,14.09
2023-04-18T08:15:36.115Z,14.66
2023-04-18T08:18:38.537Z,14.70
2023-04-18T08:21:41.135Z,14.73
2023-04-18T08:25:01.135Z,15.13
2023-04-18T08:28:06.276Z,15.48
2023-04-18T08:31:11.859Z,16.99
2023-04-18T08:34:14.802Z,18.60
2023-04-18T08:37:17.053Z,18.99
2023-04-18T08:40:19.883Z,19.98
2023-04-18T08:43:22.210Z,20.45
2023-04-18T08:46:24.856Z,21.87
2023-04-18T08:49:28.349Z,19.63
2023-04-18T08:52:32.010Z,18.02
2023-04-18T08:55:34.467Z,17.14
2023-04-18T08:58:37.504Z,16.79
2023-04-18T09:01:56.494Z,17.35
2023-04-18T09:04:59.628Z,16.88
2023-04-18T09:08:21.456Z,16.50
2023-04-18T09:11:28.993Z,16.35
2023-04-18T09:14:32.716Z,16.46
2023-04-18T09:17:43.650Z,16.79
2023-04-18T09:20:47.636Z,18.42
2023-04-18T09:23:50.421Z,18.23
2023-04-18T09:26:56.920Z,18.53
2023-04-18T09:30:00.807Z,18.10
2023-04-18T09:33:06.685Z,17.07
2023-04-18T09:36:17.146Z,17.20
2023-04-18T09:39:27.055Z,17.05
2023-04-18T09:42:35.854Z,16.61
2023-04-18T09:45:38.770Z,18.69
2023-04-18T09:48:41.844Z,19.21
2023-04-18T09:51:44.798Z,19.06
2023-04-18T09:54:48.320Z,19.01
2023-04-18T09:57:52.649Z,18.80
2023-04-18T10:00:56.454Z,18.95
2023-04-18T10:04:01.539Z,19.20
2023-04-18T10:07:04.834Z,18.49
2023-04-18T10:10:07.771Z,18.29
2023-04-18T10:13:11.942Z,19.39
2023-04-18T10:16:14.734Z,19.34
2023-04-18T10:19:20.983Z,18.73
2023-04-18T10:22:27.390Z,18.29
2023-04-18T10:25:39.400Z,17.51
2023-04-18T10:28:53.466Z,17.32
2023-04-18T10:32:07.007Z,17.60
2023-04-18T10:35:10.552Z,17.86
2023-04-18T10:38:22.566Z,17.52
2023-04-18T10:41:28.477Z,18.46
2023-04-18T10:44:30.913Z,19.30
2023-04-18T10:47:33.737Z,19.95
2023-04-18T10:50:56.223Z,20.58
2023-04-18T10:54:00.993Z,19.52
2023-04-18T10:57:04.171Z,19.11
2023-04-18T11:00:13.865Z,19.17
2023-04-18T11:03:16.388Z,19.06
2023-04-18T11:06:19.152Z,18.39
2023-04-18T11:09:22.728Z,18.36
2023-04-18T11:12:28.916Z,17.52
2023-04-18T11:15:31.362Z,18.66
2023-04-18T11:18:41.417Z,20.79
2023-04-18T11:21:44.065Z,20.06
2023-04-18T11:24:47.115Z,19.79
2023-04-18T11:27:51.698Z,19.60
2023-04-18T11:30:57.369Z,19.25
2023-04-18T11:34:01.970Z,18.43
2023-04-18T11:37:08.398Z,18.45
2023-04-18T11:40:11.684Z,18.92
2023-04-18T11:43:20.051Z,18.32
2023-04-18T11:46:26.989Z,18.95
2023-04-18T11:49:32.125Z,17.75
2023-04-18T11:52:35.518Z,17.35
2023-04-18T11:55:38.182Z,17.53
2023-04-18T11:58:40.746Z,17.41
2023-04-18T12:01:43.790Z,17.31
2023-04-18T12:04:50.257Z,17.88
2023-04-18T12:07:53.122Z,19.22
2023-04-18T12:10:55.964Z,20.26
2023-04-18T12:13:59.476Z,20.18
2023-04-18T12:17:03.466Z,20.64
2023-04-18T12:20:09.620Z,21.22
2023-04-18T12:23:31.243Z,21.68
2023-04-18T12:26:33.689Z,21.69
2023-04-18T12:29:36.308Z,19.88
2023-04-18T12:32:39.189Z,19.24
2023-04-18T12:35:42.504Z,18.79
2023-04-18T12:38:45.818Z,18.38
2023-04-18T12:41:49.830Z,17.87
2023-04-18T12:44:52.604Z,17.84
2023-04-18T12:47:55.193Z,17.70
2023-04-18T12:50:57.660Z,17.65
2023-04-18T12:54:00.333Z,18.02
2023-04-18T12:57:03.297Z,18.06
2023-04-18T13:00:13.015Z,20.52
2023-04-18T13:03:15.586Z,23.07
2023-04-18T13:06:18.298Z,24.31
2023-04-18T13:09:20.663Z,25.04
2023-04-18T13:12:23.560Z,26.35
2023-04-18T13:15:27.460Z,28.69
2023-04-18T13:18:30.234Z,25.01
2023-04-18T13:21:32.456Z,27.02
2023-04-18T13:24:37.089Z,30.09
2023-04-18T13:27:41.963Z,29.75
2023-04-18T13:30:44.838Z,31.17
2023-04-18T13:33:47.190Z,30.94
2023-04-18T13:36:49.759Z,27.25
2023-04-18T13:39:52.430Z,26.46
2023-04-18T13:42:55.101Z,28.35
2023-04-18T13:45:57.491Z,28.19
2023-04-18T13:49:00.053Z,26.82
2023-04-18T13:52:02.868Z,28.92
2023-04-18T13:55:05.920Z,28.68
2023-04-18T13:58:09.757Z,29.17
2023-04-18T14:01:17.064Z,29.92
2023-04-18T14:04:23.573Z,29.34
2023-04-18T14:07:26.100Z,26.36
2023-04-18T14:10:28.914Z,24.60
2023-04-18T14:13:32.135Z,25.07
2023-04-18T14:16:34.848Z,24.58
2023-04-18T14:22:39.653Z,22.74
2023-04-18T14:25:42.015Z,22.36
2023-04-18T14:28:45.949Z,24.75
2023-04-18T14:31:48.575Z,24.57
2023-04-18T14:34:52.746Z,23.57
2023-04-18T14:37:55.285Z,23.02
2023-04-18T14:40:58.541Z,20.94
2023-04-18T14:44:01.227Z,20.82
2023-04-18T14:47:04.139Z,20.99
2023-04-18T14:50:07.545Z,19.92
2023-04-18T14:53:10.919Z,19.46
2023-04-18T14:56:14.810Z,18.88
2023-04-18T14:59:18.746Z,18.70
2023-04-18T15:02:21.678Z,18.52
2023-04-18T15:05:24.455Z,18.59
2023-04-18T15:08:27.063Z,18.89
2023-04-18T15:11:29.862Z,18.38
2023-04-18T15:14:33.015Z,18.01
2023-04-18T15:17:35.954Z,17.90
2023-04-18T15:20:39.559Z,17.98
2023-04-18T15:23:42.361Z,17.86
2023-04-18T15:26:45.354Z,17.95
2023-04-18T15:29:48.084Z,17.95
2023-04-18T15:32:50.510Z,17.96
2023-04-18T15:35:54.925Z,17.74
2023-04-18T15:38:57.314Z,17.56
2023-04-18T15:41:59.943Z,17.76
2023-04-18T15:45:04.125Z,17.56
2023-04-18T15:48:06.909Z,17.52
2023-04-18T15:51:09.189Z,17.44
2023-04-18T15:54:11.918Z,17.47
2023-04-18T15:57:14.336Z,17.46
2023-04-18T16:00:20.137Z,17.34
2023-04-18T16:03:23.841Z,17.28
2023-04-18T16:06:27.382Z,17.13
2023-04-18T16:09:30.010Z,17.24
2023-04-18T16:12:32.437Z,17.05
2023-04-18T16:15:35.755Z,16.82
2023-04-18T16:18:39.152Z,16.78
2023-04-18T16:21:42.368Z,16.69
2023-04-18T16:24:44.650Z,16.62
2023-04-18T16:27:47.271Z,16.61
2023-04-18T16:30:49.919Z,16.61
2023-04-18T16:33:52.971Z,16.50
2023-04-18T16:36:55.711Z,16.46
2023-04-18T16:40:07.183Z,16.39
2023-04-18T16:43:09.554Z,16.39
2023-04-18T16:46:13.911Z,16.46
2023-04-18T16:49:16.455Z,16.43
2023-04-18T16:52:19.855Z,16.41
2023-04-18T16:55:22.166Z,16.35
2023-04-18T16:58:24.863Z,16.28
2023-04-18T17:01:27.105Z,16.15
2023-04-18T17:04:29.941Z,16.08
2023-04-18T17:07:32.293Z,15.99
2023-04-18T17:10:34.894Z,15.84
2023-04-18T17:13:37.174Z,15.72
2023-04-18T17:16:41.040Z,15.66
2023-04-18T17:19:43.546Z,15.53
2023-04-18T17:22:46.134Z,15.45
2023-04-18T17:25:48.892Z,15.29
2023-04-18T17:28:51.486Z,15.17
2023-04-18T17:31:53.992Z,15.07
2023-04-18T17:34:56.765Z,14.95
2023-04-18T17:37:59.090Z,14.81
2023-04-18T17:41:02.523Z,14.67
2023-04-18T17:44:05.716Z,14.51
2023-04-18T17:47:08.270Z,14.38
2023-04-18T17:50:10.932Z,14.25
2023-04-18T17:53:13.781Z,14.14
2023-04-18T17:56:16.595Z,14.03
2023-04-18T17:59:19.409Z,13.96
2023-04-18T18:02:23.588Z,13.88
2023-04-18T18:05:26.289Z,13.77
2023-04-18T18:08:29.600Z,13.66
2023-04-18T18:11:32.086Z,13.53
2023-04-18T18:14:34.318Z,13.57
2023-04-18T18:17:37.112Z,13.55
2023-04-18T18:20:41.899Z,13.42
2023-04-18T18:23:44.395Z,13.43
2023-04-18T18:26:46.677Z,13.63
2023-04-18T18:29:50.386Z,14.00
2023-04-18T18:32:53.535Z,14.11
2023-04-18T18:35:58.541Z,14.16
2023-04-18T18:39:01.225Z,14.05
2023-04-18T18:42:03.940Z,14.13
2023-04-18T18:45:07.470Z,14.14
2023-04-18T18:48:10.430Z,14.11
2023-04-18T18:51:12.823Z,14.05
2023-04-18T18:54:15.389Z,14.10
2023-04-18T18:57:17.701Z,14.10
2023-04-18T19:00:20.527Z,14.03
2023-04-18T19:03:23.459Z,13.93
2023-04-18T19:06:26.613Z,13.93
2023-04-18T19:09:29.298Z,14.03
2023-04-18T19:12:32.066Z,14.14
2023-04-18T19:15:34.438Z,14.22
2023-04-18T19:18:37.294Z,14.24
2023-04-18T19:21:42.763Z,14.19
2023-04-18T19:24:45.777Z,14.11
2023-04-18T19:27:48.102Z,14.09
2023-04-18T19:30:50.894Z,14.04
2023-04-18T19:33:53.231Z,14.03
2023-04-18T19:36:55.768Z,14.00
2023-04-18T19:39:58.041Z,13.93
2023-04-18T19:43:00.818Z,13.97
2023-04-18T19:46:03.269Z,13.92
2023-04-18T19:49:05.944Z,13.88
2023-04-18T19:52:08.151Z,13.88
2023-04-18T19:55:10.844Z,13.88
2023-04-18T19:58:32.711Z,13.87
2023-04-18T20:01:35.948Z,13.86
2023-04-18T20:04:39.693Z,13.84
2023-04-18T20:07:42.688Z,13.88
2023-04-18T20:10:45.252Z,13.86
2023-04-18T20:13:47.684Z,13.82
2023-04-18T20:16:50.215Z,13.84
2023-04-18T20:19:52.757Z,13.78
2023-04-18T20:22:55.342Z,13.78
2023-04-18T20:25:57.632Z,13.72
2023-04-18T20:29:00.358Z,13.74
2023-04-18T20:32:02.660Z,13.70
2023-04-18T20:35:05.626Z,13.70
2023-04-18T20:38:09.837Z,13.71
2023-04-18T20:41:18.258Z,13.67
2023-04-18T20:44:21.732Z,13.63
2023-04-18T20:47:24.414Z,13.62
2023-04-18T20:50:27.477Z,13.57
2023-04-18T20:53:30.397Z,13.48
2023-04-18T20:56:33.775Z,13.47
2023-04-18T20:59:36.385Z,13.46
2023-04-18T21:02:38.950Z,13.47
2023-04-18T21:05:42.698Z,13.39
2023-04-18T21:08:44.942Z,13.37
2023-04-18T21:11:48.208Z,13.33
2023-04-18T21:14:50.679Z,13.27
2023-04-18T21:17:53.412Z,13.23
2023-04-18T21:20:55.654Z,13.20
2023-04-18T21:23:58.340Z,13.17
2023-04-18T21:27:00.600Z,13.12
2023-04-18T21:30:05.848Z,13.11
2023-04-18T21:33:08.140Z,13.17
2023-04-18T21:36:10.679Z,13.15
2023-04-18T21:39:13.004Z,13.16
2023-04-18T21:42:15.706Z,13.14
2023-04-18T21:45:18.251Z,13.11
2023-04-18T21:48:21.719Z,13.06
2023-04-18T21:51:24.045Z,13.05
2023-04-18T21:54:27.073Z,13.03
2023-04-18T21:57:29.405Z,13.04
2023-04-18T22:00:32.010Z,13.00
2023-04-18T22:03:34.860Z,12.95
2023-04-18T22:06:37.394Z,12.95
2023-04-18T22:09:40.093Z,12.88
2023-04-18T22:12:43.888Z,12.87
2023-04-18T22:15:46.543Z,12.83
2023-04-18T22:18:51.911Z,12.82
2023-04-18T22:21:54.502Z,12.80
2023-04-18T22:24:56.877Z,12.89
2023-04-18T22:27:59.573Z,12.82
2023-04-18T22:31:02.007Z,12.73
2023-04-18T22:34:04.846Z,12.68
2023-04-18T22:37:07.105Z,12.69
2023-04-18T22:40:09.909Z,12.72
2023-04-18T22:43:13.651Z,12.68
2023-04-18T22:46:16.290Z,12.72
2023-04-18T22:49:18.594Z,12.76
2023-04-18T22:52:24.761Z,12.76
2023-04-18T22:55:27.155Z,12.67
2023-04-18T22:58:31.335Z,12.82
2023-04-18T23:01:33.710Z,12.91
2023-04-18T23:04:36.599Z,12.78
2023-04-18T23:07:38.912Z,12.71
2023-04-18T23:10:41.506Z,12.69
2023-04-18T23:13:43.730Z,12.69
2023-04-18T23:16:46.297Z,12.69
2023-04-18T23:19:48.691Z,12.72
2023-04-18T23:22:53.742Z,12.70
2023-04-18T23:25:56.096Z,12.90
2023-04-18T23:28:59.009Z,12.83
2023-04-18T23:32:01.331Z,12.76
2023-04-18T23:35:04.976Z,12.74
2023-04-18T23:38:07.246Z,12.70
2023-04-18T23:41:09.844Z,12.71
2023-04-18T23:44:12.655Z,12.67
2023-04-18T23:47:15.344Z,12.73
2023-04-18T23:50:17.648Z,12.77
2023-04-18T23:53:20.895Z,12.83
2023-04-18T23:56:23.310Z,12.81
2023-04-18T23:59:25.985Z,12.75
